Tiempo atmosférico en la estación meteorológica de San José del Valle, Cádiz (105 m.)



Fecha
DESCASC
Temp. máxima en grados centígrados (hora)
DESCASC
Temp. mínima en grados centígrados (hora)
DESCASC
Temp. media en grados centígrados
DESCASC
Racha de viento máxima en m/sg (hora)
DESCASC
Velocidad máxima media en intervalos de 10 minutos(hora)
DESCASC
Precipitaciones diarias en mm
DESCASC
Precipitaciones de 00:00 a 06:00 en mm
DESCASC
Precipitaciones de 06:00 a 12:00 en mm
DESCASC
Precipitaciones de 12:00 a 18:00 en mm
DESCASC
Precipitaciones de 18:00 a 24:00 en mm
DESCASC
27-10-2020 20.1 (15:00) 8.7 (07:40) 14.4 6.11 (16:10) 2.78 (16:00) 0 0 0 0 0
26-10-2020 18.5 (15:20) 11.6 (23:59) 15.1 8.89 (00:50) 3.33 (12:00) 2.4 2.2 0.2 0 0
25-10-2020 21.4 (15:30) 11.9 (05:10) 16.6 8.33 (16:00) 3.89 (16:00) 3 0 0 0 3
24-10-2020 22.2 (15:00) 12.2 (00:00) 17.2 5.28 (18:20) 2.5 (18:20) 0.2 0 0.2 0 0
23-10-2020 21.2 (15:20) 14.4 (00:00) 17.8 4.72 (15:40) 1.94 (15:50) 1.6 1.6 0 0 0
22-10-2020 21.8 (16:20) 15.7 (00:00) 18.7 9.17 (02:20) 4.72 (12:00) 18.2 9.4 5.8 0.2 2.8
21-10-2020 22.7 (17:40) 17.7 (00:00) 20.2 10.28 (05:00) 5.28 (05:00) 0.2 0 0.2 0 0
20-10-2020 28.3 (15:00) 17.9 (00:00) 23.1 17.78 (21:50) 10.83 (21:40) 20.6 0 0 0 20.6
19-10-2020 28.9 (16:10) 20.1 (00:00) 24.5 15 (07:40) 10.56 (07:40) 0 0 0 0 0
18-10-2020 24.8 (15:30) 11.8 (00:00) 18.3 10.28 (14:50) 8.06 (14:50) 0 0 0 0 0
17-10-2020 24.1 (17:20) 10 (00:00) 17.1 6.67 (14:00) 2.5 (19:10) 0 0 0 0 0
16-10-2020 24.3 (15:10) 9.9 (00:00) 17.1 6.11 (14:20) 2.78 (13:20) 0 0 0 0 0
15-10-2020 23.4 (15:50) 9.8 (00:00) 16.6 6.39 (18:20) 2.78 (18:10) 0 0 0 0 0
14-10-2020 22.3 (16:30) 11.3 (00:00) 16.8 8.33 (17:30) 3.61 (17:30) 0 0 0 0 0
13-10-2020 28.1 (17:30) 11.8 (00:00) 20 6.11 (21:40) 3.33 (21:20) 0 0 0 0 0
12-10-2020 27.6 (17:10) 12.9 (00:00) 20.3 6.39 (18:00) 2.78 (17:40) 0 0 0 0 0
11-10-2020 29.1 (16:30) 15.7 (00:00) 22.4 5.83 (22:30) 3.61 (22:20) 0 0 0 0 0
10-10-2020 29.7 (16:10) 16.5 (00:00) 23.1 5.83 (17:30) 2.22 (18:00) 0 0 0 0 0
09-10-2020 29.4 (16:30) 19.3 (00:00) 24.3 6.94 (00:20) 3.61 (21:00) 0 0 0 0 0
08-10-2020 28.2 (14:50) 19.9 (00:00) 24.1 8.33 (17:00) 4.44 (16:40) 0 0 0 0 0
07-10-2020 32.8 (17:50) 14.1 (00:00) 23.4 5 (17:20) 1.94 (14:00) 0 0 0 0 0
06-10-2020 29.5 (18:00) 12.4 (00:00) 20.9 6.11 (22:00) 4.17 (22:00) 0 0 0 0 0
05-10-2020 24.6 (17:00) 12.9 (00:00) 18.8 8.33 (13:10) 3.61 (13:10) 0 0 0 0 0
04-10-2020 24.2 (15:50) 11.1 (00:00) 17.7 8.33 (16:30) 2.78 (19:20) 0 0 0 0 0
03-10-2020 22.5 (16:00) 9.9 (00:00) 16.2 6.94 (17:00) 2.5 (20:20) 0 0 0 0 0
02-10-2020 21.8 (14:10) 15.1 (00:00) 18.4 12.5 (13:10) 5.28 (16:00) 2.6 0 0 2.4 0.2
01-10-2020 27.1 (16:50) 17.8 (00:00) 22.4 8.33 (18:30) 3.89 (17:40) 0 0 0 0 0
30-09-2020 29.6 (15:40) 17.7 (00:00) 23.7 6.11 (19:00) 3.33 (16:40) 0 0 0 0 0

Gráficas

Temp. máximas Temp. mínimas Temp. medias Precipitaciones Rachas de viento máximas Velocidades máximas media en intervalos de 10 minutos

Datos horarios

Fecha y hora oficial Temperatura (ºC) Velocidad del viento (km/h) Dirección del viento Racha (km/h) Dirección de racha Precipitación (mm) Presión (hPa) Tendencia (hPa) Humedad (%)
2020-10-29 23:00:00 21.3 13 Este 31 Sudeste 0 -- -- 44
2020-10-29 22:00:00 21.2 10 Este 35 Sudeste 0 -- -- 37
2020-10-29 21:00:00 21.2 17 Este 36 Sudeste 0 -- -- 41
2020-10-29 20:00:00 21.4 30 Sudeste 44 Sudeste 0 -- -- 37
2020-10-29 19:00:00 22.3 30 Sudeste 40 Sudeste 0 -- -- 35
2020-10-29 18:00:00 22.6 7 Este 23 Este 0 -- -- 34
2020-10-29 17:00:00 24.3 4 Nordeste 21 Este 0 -- -- 29
2020-10-29 16:00:00 25.5 14 Sudeste 22 Sudeste 0 -- -- 26
2020-10-29 15:00:00 25.3 8 Este 27 Sudeste 0 -- -- 31
2020-10-29 14:00:00 25.8 6 Este 12 Sudeste 0 -- -- 23
2020-10-29 13:00:00 24.3 3 Sudeste 9 Noroeste 0 -- -- 27
2020-10-29 12:00:00 21.5 5 Norte 8 Norte 0 -- -- 53
2020-10-29 11:00:00 18.2 4 Sudeste 8 Sudeste 0 -- -- 66
2020-10-29 10:00:00 16.4 4 Sudeste 5 Sudeste 0 -- -- 74
2020-10-29 09:00:00 13.8 2 Este 5 Sudeste 0 -- -- 93
2020-10-29 08:00:00 11.8 0 Calma 3 Sudeste 0 -- -- 96
2020-10-29 07:00:00 11.9 0 Calma 4 Noroeste 0 -- -- 95
2020-10-29 06:00:00 12.3 3 Sudoeste 6 Sur 0 -- -- 95
2020-10-29 05:00:00 12.5 0 Calma 3 Este 0 -- -- 93
2020-10-29 04:00:00 12.8 0 Calma 8 Este 0 -- -- 92
2020-10-29 03:00:00 13 0 Calma 6 Sudeste 0 -- -- 90
2020-10-29 02:00:00 13.5 0 Calma 6 Sudeste 0 -- -- 90
2020-10-29 01:00:00 14.3 0 Calma 5 Este 0 -- -- 89
2020-10-29 00:00:00 14.7 0 Calma 5 Sudeste 0 -- -- 84
2020-10-28 23:00:00 15.5 2 Sudeste 4 Sudeste 0 -- -- 84
2020-10-28 22:00:00 16.5 0 Calma 5 Nordeste 0 -- -- 70
2020-10-28 21:00:00 17.5 2 Norte 14 Norte 0 -- -- 61
2020-10-28 20:00:00 17.9 0 Calma 6 Norte 0 -- -- 60
2020-10-28 19:00:00 19.3 0 Calma 7 Sudoeste 0 -- -- 51
2020-10-28 18:00:00 21.1 3 Norte 18 Norte 0 -- -- 47
2020-10-28 17:00:00 22.7 5 Norte 20 Norte -- -- -- 45
2020-10-28 16:00:00 23 9 Norte 18 Noroeste 0 -- -- 41
2020-10-28 15:00:00 22.3 8 Norte 26 Norte 0 -- -- 43
2020-10-28 14:00:00 22.6 7 Norte 18 Norte 0 -- -- 43
2020-10-28 13:00:00 21.5 5 Sudeste 10 Sudeste 0 -- -- 46
2020-10-28 12:00:00 19.2 4 Sudeste 10 Sudeste 0 -- -- 51
2020-10-28 11:00:00 17.2 5 Este 10 Sudeste 0 -- -- 58
2020-10-28 10:00:00 14.8 4 Sudeste 8 Sudeste 0 -- -- 66
2020-10-28 09:00:00 11.8 2 Nordeste 6 Este 0 -- -- 78
2020-10-28 08:00:00 10.1 0 Calma 6 Nordeste 0 -- -- 89
2020-10-28 07:00:00 10 0 Calma 6 Norte 0 -- -- 87
2020-10-28 06:00:00 10 0 Calma 5 Sudeste 0 -- -- 89
2020-10-28 05:00:00 10.7 0 Calma 3 Sudeste 0 -- -- 89
2020-10-28 04:00:00 10.5 0 Calma 8 Sudeste 0 -- -- 90
2020-10-28 03:00:00 10.8 4 Sudeste 8 Sudeste 0 -- -- 85
2020-10-28 02:00:00 11.2 0 Calma 3 Oeste 0 -- -- 81
2020-10-28 01:00:00 12.4 0 Calma 4 Noroeste 0 -- -- 83
2020-10-28 00:00:00 12.7 0 Calma 5 Nordeste 0 -- -- 76
2020-10-27 23:00:00 12.7 0 Calma 4 Sudeste 0 -- -- 68
2020-10-27 22:00:00 13.9 2 Sudeste 14 Noroeste 0 -- -- 58
2020-10-27 21:00:00 15.2 4 Noroeste 13 Norte 0 -- -- 48
2020-10-27 20:00:00 15.2 3 Noroeste 10 Norte 0 -- -- 51
2020-10-27 19:00:00 16.3 5 Norte 13 Noroeste 0 -- -- 46
2020-10-27 18:00:00 17.6 6 Norte 22 Norte 0 -- -- 41
2020-10-27 17:00:00 19.4 7 Noroeste 22 Norte 0 -- -- 39
2020-10-27 16:00:00 20.1 10 Norte 21 Norte 0 -- -- 36
2020-10-27 15:00:00 20.1 7 Norte 19 Noroeste 0 -- -- 37
2020-10-27 14:00:00 19.5 8 Norte 20 Norte 0 -- -- 40
2020-10-27 13:00:00 19.5 5 Norte 19 Norte 0 -- -- 42
2020-10-27 12:00:00 17.6 6 Norte 14 Nordeste 0 -- -- 57
2020-10-27 11:00:00 15 3 Este 7 Sudeste 0 -- -- 71
2020-10-27 10:00:00 13 2 Este 7 Sudeste 0 -- -- 77
2020-10-27 09:00:00 10.3 3 Sudeste 7 Este 0 -- -- 91
2020-10-27 08:00:00 8.7 0 Calma 6 Sudeste 0 -- -- 94
2020-10-27 07:00:00 8.8 0 Calma 6 Sudeste 0 -- -- 93
2020-10-27 06:00:00 9.1 0 Calma 3 Nordeste 0 -- -- 94
2020-10-27 05:00:00 9.5 2 Noroeste 4 Este 0 -- -- 93
2020-10-27 04:00:00 9.5 0 Calma 6 Sudeste 0 -- -- 92
2020-10-27 03:00:00 10 0 Calma 3 Este 0 -- -- 92
2020-10-27 02:00:00 10.4 0 Calma 4 Sudoeste 0 -- -- 93
2020-10-27 01:00:00 11 0 Calma 4 Nordeste 0 -- -- 90
2020-10-27 00:00:00 11.6 0 Calma 4 Noroeste 0 -- -- 87
2020-10-26 23:00:00 12.3 0 Calma 5 Norte 0 -- -- 84
2020-10-26 22:00:00 12.2 0 Calma 9 Oeste 0 -- -- 74
2020-10-26 21:00:00 13.1 4 Oeste 7 Sudoeste 0 -- -- 72
2020-10-26 20:00:00 14.2 4 Oeste 8 Oeste 0 -- -- 60
2020-10-26 19:00:00 14.5 3 Oeste 7 Oeste 0 -- -- 59
2020-10-26 18:00:00 17 4 Noroeste 21 Noroeste 0 -- -- 45
2020-10-26 17:00:00 18 7 Norte 23 Norte 0 -- -- 42
2020-10-26 16:00:00 18.2 10 Norte 22 Norte 0 -- -- 42
2020-10-26 15:00:00 18.2 10 Norte 26 Norte 0 -- -- 51
2020-10-26 14:00:00 17.9 11 Norte 30 Norte 0 -- -- 59
2020-10-26 13:00:00 17.2 11 Norte 27 Norte 0 -- -- 60
2020-10-26 12:00:00 16.9 12 Norte 25 Norte 0.2 -- -- 59
2020-10-26 11:00:00 16.2 10 Norte 25 Norte 0 -- -- 68
2020-10-26 10:00:00 15.2 8 Norte 22 Norte 0 -- -- 78
2020-10-26 09:00:00 13.2 6 Norte 14 Noroeste 0 -- -- 87
2020-10-26 08:00:00 12.7 4 Norte 18 Norte 0 -- -- 91
2020-10-26 07:00:00 12.8 5 Norte 18 Norte 0 -- -- 90
2020-10-26 06:00:00 14 8 Norte 21 Norte 0 -- -- 89
2020-10-26 05:00:00 14.6 3 Norte 12 Noroeste 0 -- -- 93
2020-10-26 04:00:00 15 3 Sudeste 8 Nordeste 0 -- -- 95
2020-10-26 03:00:00 14.9 0 Calma 6 Nordeste 0 -- -- 96
2020-10-26 02:00:00 14.9 0 Calma 17 Noroeste 0.4 -- -- 95
2020-10-26 01:00:00 15.2 10 Norte 32 Norte 1.8 -- -- 94
2020-10-26 00:00:00 17.6 12 Sudoeste 25 Oeste 3 -- -- 91
2020-10-25 23:00:00 17.8 9 Sudoeste 23 Sudoeste 0 -- -- 87
2020-10-25 22:00:00 17.1 8 Sudoeste 20 Oeste 0 -- -- 90
2020-10-25 21:00:00 17.6 8 Sudoeste 22 Sur 0 -- -- 85
2020-10-25 20:00:00 17.9 6 Sudoeste 17 Sudoeste 0 -- -- 81
2020-10-25 19:00:00 18.4 8 Sudoeste 23 Sudoeste 0 -- -- 78
2020-10-25 18:00:00 19 9 Sudoeste 27 Sudoeste 0 -- -- 72
2020-10-25 17:00:00 20.1 9 Sudoeste 28 Sudoeste 0 -- -- 66
2020-10-25 16:00:00 20.9 14 Sudoeste 30 Sudoeste 0 -- -- 62
2020-10-25 15:00:00 21 12 Sudoeste 24 Sudoeste 0 -- -- 63
2020-10-25 14:00:00 20 9 Sudoeste 21 Sudoeste 0 -- -- 65
2020-10-25 13:00:00 19.3 5 Norte 15 Oeste 0 -- -- 67
2020-10-25 12:00:00 19.1 5 Oeste 14 Sudoeste 0 -- -- 68
2020-10-25 11:00:00 17.3 2 Este 6 Este 0 -- -- 82
2020-10-25 10:00:00 15.7 3 Sudeste 8 Sudeste 0 -- -- 87
2020-10-25 09:00:00 13.6 2 Sur 4 Sudeste 0 -- -- 98
2020-10-25 08:00:00 12.3 0 Calma 3 Nordeste 0 -- -- 97
2020-10-25 07:00:00 12.1 0 Calma 4 Sudoeste 0 -- -- 97
2020-10-25 06:00:00 12.4 2 Este 5 Este 0 -- -- 97
2020-10-25 05:00:00 12 0 Calma 5 Este 0 -- -- 97
2020-10-25 04:00:00 12 0 Calma 4 Este 0 -- -- 96
2020-10-25 03:00:00 12.5 0 Calma 3 Norte 0 -- -- 96
2020-10-25 02:00:00 13.3 0 Calma 5 Sudeste 0 -- -- 96
2020-10-25 01:00:00 14.3 0 Calma 4 Oeste 0 -- -- 95
2020-10-25 00:00:00 14.6 0 Calma 5 Sudoeste 0 -- -- 94
2020-10-24 23:00:00 15.4 2 Oeste 9 Oeste 0 -- -- 92
2020-10-24 22:00:00 15.5 4 Oeste 12 Oeste 0 -- -- 92
2020-10-24 21:00:00 15.8 4 Oeste 10 Sudoeste 0 -- -- 84
2020-10-24 20:00:00 17.2 4 Sudoeste 13 Sudoeste 0 -- -- 71
2020-10-24 19:00:00 19.6 8 Sudoeste 19 Sudoeste 0 -- -- 63
2020-10-24 18:00:00 21.4 6 Sudoeste 12 Sudoeste 0 -- -- 61
2020-10-24 17:00:00 21.4 6 Norte 17 Noroeste 0 -- -- 59
2020-10-24 16:00:00 20.6 5 Norte 14 Noroeste 0 -- -- 62
2020-10-24 15:00:00 22.2 6 Sudoeste 18 Sudoeste 0 -- -- 59
2020-10-24 14:00:00 21.2 4 Este 12 Sudoeste 0 -- -- 57
2020-10-24 13:00:00 20 5 Este 10 Sur 0 -- -- 68
2020-10-24 12:00:00 17.5 3 Este 6 Este 0 -- -- 82
2020-10-24 11:00:00 15.6 3 Sudeste 5 Este 0 -- -- 86
2020-10-24 10:00:00 13.6 3 Este 6 Este 0.2 -- -- 97
2020-10-24 09:00:00 12.2 0 Calma 6 Sudeste 0 -- -- 97
2020-10-24 08:00:00 12.5 3 Sudeste 5 Sudeste 0 -- -- 97
2020-10-24 07:00:00 12.5 0 Calma 4 Nordeste 0 -- -- 97
2020-10-24 06:00:00 12.8 0 Calma 4 Sudeste 0 -- -- 96
2020-10-24 05:00:00 12.9 0 Calma 4 Este 0 -- -- 96
2020-10-24 04:00:00 13.1 0 Calma 3 Este 0 -- -- 95
2020-10-24 03:00:00 13.5 0 Calma 3 Este 0 -- -- 95
2020-10-24 02:00:00 13.8 0 Calma 4 Este 0 -- -- 95
2020-10-24 01:00:00 14.1 0 Calma 4 Este 0 -- -- 93
2020-10-24 00:00:00 14.8 0 Calma 4 Este 0 -- -- 93
2020-10-23 23:00:00 15.1 0 Calma 4 Oeste 0 -- -- 90
2020-10-23 22:00:00 16 2 Oeste 6 Oeste 0 -- -- 86
2020-10-23 21:00:00 16.6 3 Oeste 8 Oeste 0 -- -- 81
2020-10-23 20:00:00 17.7 4 Oeste 13 Sudoeste 0 -- -- 75
2020-10-23 19:00:00 19.9 6 Sudoeste 13 Norte 0 -- -- 65
2020-10-23 18:00:00 19.5 3 Norte 9 Noroeste 0 -- -- 68
2020-10-23 17:00:00 20.1 2 Norte 10 Nordeste 0 -- -- 65
2020-10-23 16:00:00 20.7 3 Nordeste 17 Norte 0 -- -- 64
2020-10-23 15:00:00 20.6 4 Norte 15 Oeste 0 -- -- 63
2020-10-23 14:00:00 20.8 4 Norte 14 Sudoeste 0 -- -- 60
2020-10-23 13:00:00 20.2 4 Este 7 Nordeste 0 -- -- 65
2020-10-23 12:00:00 19.1 4 Sudeste 6 Sudeste 0 -- -- 79
2020-10-23 11:00:00 17.6 4 Este 8 Nordeste 0 -- -- 86
2020-10-23 10:00:00 15.4 3 Este 6 Este 0 -- -- 98
2020-10-23 09:00:00 14.4 0 Calma 3 Este 0 -- -- 98
2020-10-23 08:00:00 14.4 0 Calma 5 Sudoeste 0 -- -- 98
2020-10-23 07:00:00 14.5 2 Sudoeste 6 Sur 0 -- -- 98
2020-10-23 06:00:00 15 5 Noroeste 13 Oeste 1.4 -- -- 97
2020-10-23 05:00:00 14.8 0 Calma 4 Sudoeste 0.2 -- -- 97
2020-10-23 04:00:00 14.8 0 Calma 14 Noroeste 0 -- -- 97
2020-10-23 03:00:00 15.3 0 Calma 4 Norte 0 -- -- 97
2020-10-23 02:00:00 15.2 0 Calma 4 Oeste 0 -- -- 96
2020-10-23 01:00:00 15.4 2 Oeste 5 Sudoeste 0 -- -- 96
2020-10-23 00:00:00 15.7 0 Calma 18 Oeste 2.8 -- -- 94
2020-10-22 23:00:00 16.5 4 Sudoeste 10 Sudoeste 0 -- -- 89
2020-10-22 22:00:00 16.8 5 Sudoeste 11 Sudoeste 0 -- -- 91
2020-10-22 21:00:00 16.8 10 Sur 22 Sudoeste 0 -- -- 89
2020-10-22 20:00:00 16.9 9 Sur 26 Sur 0 -- -- 88
2020-10-22 19:00:00 18.5 15 Sur 29 Sur 0 -- -- 77
2020-10-22 18:00:00 19.5 10 Sudoeste 24 Sur 0 -- -- 82
2020-10-22 17:00:00 20.3 14 Sur 27 Sur 0 -- -- 79
2020-10-22 16:00:00 21.4 13 Sur 26 Sur 0 -- -- 76
2020-10-22 15:00:00 19.2 12 Sur 25 Sur 0 -- -- 87
2020-10-22 14:00:00 19 12 Sur 29 Sur 0.2 -- -- 89
2020-10-22 13:00:00 18.7 17 Sur 27 Sur 0 -- -- 87
2020-10-22 12:00:00 18 17 Sur 31 Sur 0 -- -- 94
2020-10-22 11:00:00 17 13 Sur 19 Sur 3 -- -- 96
2020-10-22 10:00:00 16.7 9 Sur 17 Sur 1.8 -- -- 95
2020-10-22 09:00:00 16.6 14 Sur 25 Sur 0.2 -- -- 94
2020-10-22 08:00:00 16.5 11 Sur 24 Sur 0 -- -- 95
2020-10-22 07:00:00 16.1 4 Sudoeste 16 Sur 0.8 -- -- 94
2020-10-22 06:00:00 16.4 8 Sur 29 Sur 3.6 -- -- 92
2020-10-22 05:00:00 17.3 7 Oeste 19 Sudeste 5 -- -- 92
2020-10-22 04:00:00 18.7 7 Sur 19 Sudeste 0 -- -- 82
2020-10-22 03:00:00 18.8 11 Sur 33 Sur 0 -- -- 82
2020-10-22 02:00:00 18.7 12 Sur 24 Sur 0 -- -- 83
2020-10-22 01:00:00 18.4 11 Sur 23 Sur 0.8 -- -- 87
2020-10-22 00:00:00 19.3 9 Sur 24 Sur 0 -- -- 84
2020-10-21 23:00:00 19.3 12 Sur 23 Sur 0 -- -- 83
2020-10-21 22:00:00 19.4 13 Sur 23 Sudoeste 0 -- -- 83
2020-10-21 21:00:00 19.8 12 Sur 24 Sur 0 -- -- 80
2020-10-21 20:00:00 20.1 9 Sur 26 Sudoeste 0 -- -- 76
2020-10-21 19:00:00 21.2 10 Sudoeste 27 Sur 0 -- -- 73
2020-10-21 18:00:00 22.3 14 Sur 31 Sur 0 -- -- 70
2020-10-21 17:00:00 22.5 15 Sur 31 Sur 0 -- -- 68
2020-10-21 16:00:00 21.8 16 Sur 31 Sur 0 -- -- 76
2020-10-21 15:00:00 21.9 14 Sur 26 Sur 0 -- -- 76
2020-10-21 14:00:00 21.6 14 Sur 27 Sur 0 -- -- 77
2020-10-21 13:00:00 20.7 11 Sudoeste 25 Sudoeste 0 -- -- 78
2020-10-21 12:00:00 20.1 8 Sudoeste 27 Sudoeste 0.2 -- -- 84
2020-10-21 11:00:00 19.9 12 Sur 25 Sur 0 -- -- 85
2020-10-21 10:00:00 18.4 11 Sur 22 Sudoeste 0 -- -- 86
2020-10-21 09:00:00 18.1 8 Sudoeste 24 Sur 0 -- -- 91
2020-10-21 08:00:00 18.3 11 Sur 26 Sur 0 -- -- 90
2020-10-21 07:00:00 17.7 10 Sur 28 Sur 0 -- -- 89
2020-10-21 06:00:00 18.7 11 Sur 35 Sudoeste 0 -- -- 90
2020-10-21 05:00:00 18.6 19 Sur 37 Sur 0 -- -- 91
2020-10-21 04:00:00 17.9 9 Sur 26 Sur 0 -- -- 89
2020-10-21 03:00:00 18.2 11 Sur 35 Sur 0 -- -- 85
2020-10-21 02:00:00 18.3 18 Sur 31 Sur 0 -- -- 91
2020-10-21 01:00:00 17.8 12 Sur 28 Sudoeste 0 -- -- 92
2020-10-21 00:00:00 18.1 13 Sur 30 Sur 0 -- -- 90
2020-10-20 23:00:00 17.9 14 Sudoeste 57 Sur 6.2 -- -- 93
2020-10-20 22:00:00 19.2 24 Sudoeste 64 Sur 11.6 -- -- 92
2020-10-20 21:00:00 18.9 31 Sur 54 Sur 1.6 -- -- 86
2020-10-20 20:00:00 20.1 25 Sur 42 Sur 0.6 -- -- 71
2020-10-20 19:00:00 21.3 19 Sur 48 Sur 0.6 -- -- 61
2020-10-20 18:00:00 24 25 Sur 55 Sur 0 -- -- 46
2020-10-20 17:00:00 26.3 26 Sur 50 Sur 0 -- -- 35
2020-10-20 16:00:00 26.2 26 Sur 49 Sudeste 0 -- -- 33
2020-10-20 15:00:00 28.3 28 Sur 53 Sudeste 0 -- -- 29
2020-10-20 14:00:00 26.3 25 Sur 52 Sur 0 -- -- 34
2020-10-20 13:00:00 25.5 26 Sur 51 Sudeste 0 -- -- 36
2020-10-20 12:00:00 25 24 Sur 48 Sur 0 -- -- 38
2020-10-20 11:00:00 23.2 21 Sur 44 Sur 0 -- -- 43
2020-10-20 10:00:00 21.6 22 Sur 37 Sur 0 -- -- 50
2020-10-20 09:00:00 21.1 17 Sur 38 Sudeste 0 -- -- 51
2020-10-20 08:00:00 21.1 19 Sur 39 Sudeste 0 -- -- 52
2020-10-20 07:00:00 21.7 18 Sur 36 Sudeste 0 -- -- 49
2020-10-20 06:00:00 21.4 23 Sudeste 39 Sudeste 0 -- -- 49
2020-10-20 05:00:00 21.3 20 Sur 39 Sudeste 0 -- -- 49
2020-10-20 04:00:00 21.5 19 Sur 43 Sudeste 0 -- -- 48
2020-10-20 03:00:00 21.6 21 Sur 37 Sudeste 0 -- -- 48
2020-10-20 02:00:00 22.6 17 Sur 39 Sur 0 -- -- 41
2020-10-20 01:00:00 22.9 12 Sur 39 Sudeste 0 -- -- 35
2020-10-20 00:00:00 22.9 16 Sudeste 34 Sudeste 0 -- -- 30
2020-10-19 23:00:00 22.8 18 Sur 34 Sudeste 0 -- -- 31
2020-10-19 22:00:00 22.4 13 Sur 24 Sudeste 0 -- -- 29
2020-10-19 21:00:00 20.8 5 Este 17 Nordeste 0 -- -- 48
2020-10-19 20:00:00 21.9 6 Este 26 Este 0 -- -- 46
2020-10-19 19:00:00 25.1 13 Este 30 Sudeste 0 -- -- 31
2020-10-19 18:00:00 27.2 17 Sur 44 Sudeste 0 -- -- 19
2020-10-19 17:00:00 27.9 26 Sudeste 44 Sudeste 0 -- -- 20
2020-10-19 16:00:00 28.5 21 Sur 37 Sudeste 0 -- -- 16
2020-10-19 15:00:00 26.6 4 Sudeste 30 Sudeste 0 -- -- 22
2020-10-19 14:00:00 25.8 22 Sudeste 34 Sudeste 0 -- -- 25
2020-10-19 13:00:00 25.1 6 Sudeste 31 Este 0 -- -- 27
2020-10-19 12:00:00 23 14 Este 34 Este 0 -- -- 37
2020-10-19 11:00:00 21.7 16 Este 31 Este 0 -- -- 36
2020-10-19 10:00:00 21.2 15 Este 52 Sudeste 0 -- -- 36
2020-10-19 09:00:00 20.3 16 Este 45 Sudeste 0 -- -- 32
2020-10-19 08:00:00 20.3 28 Sudeste 54 Sudeste 0 -- -- 35
2020-10-19 07:00:00 20.7 24 Este 37 Sudeste 0 -- -- 31
2020-10-19 06:00:00 21 14 Este 32 Sudeste 0 -- -- 29
2020-10-19 05:00:00 21 10 Este 29 Sudeste 0 -- -- 31
2020-10-19 04:00:00 21.4 12 Este 32 Este 0 -- -- 30
2020-10-19 03:00:00 21.3 9 Este 23 Sudeste 0 -- -- 36
2020-10-19 02:00:00 21.7 7 Este 33 Sudeste 0 -- -- 30
2020-10-19 01:00:00 21.9 12 Este 37 Este 0 -- -- 29
2020-10-19 00:00:00 21.8 13 Este 30 Este 0 -- -- 27
2020-10-18 23:00:00 21.6 7 Sudeste 35 Sudeste 0 -- -- 25
2020-10-18 22:00:00 21.4 17 Este 31 Sudeste 0 -- -- 29
2020-10-18 21:00:00 21 9 Este 21 Sudeste 0 -- -- 36
2020-10-18 20:00:00 20.7 8 Este 20 Este 0 -- -- 35
2020-10-18 19:00:00 22.2 8 Este 17 Este 0 -- -- 31
2020-10-18 18:00:00 23.5 8 Este 22 Este 0 -- -- 30
2020-10-18 17:00:00 23.8 7 Este 24 Sudeste 0 -- -- 31
2020-10-18 16:00:00 24.4 13 Este 35 Sudeste 0 -- -- 32
2020-10-18 15:00:00 24.4 26 Sudeste 37 Sudeste 0 -- -- 28
2020-10-18 14:00:00 23.7 17 Este 37 Sudeste 0 -- -- 30
2020-10-18 13:00:00 23.4 12 Este 30 Sudeste 0 -- -- 33
2020-10-18 12:00:00 22.8 13 Sudeste 27 Sudeste 0 -- -- 37
2020-10-18 11:00:00 19.6 4 Sudeste 7 Sur 0 -- -- 45
2020-10-18 10:00:00 15.5 0 Calma 5 Este 0 -- -- 59
2020-10-18 09:00:00 12.4 0 Calma 3 Nordeste 0 -- -- 83
2020-10-18 08:00:00 12 0 Calma 5 Sur 0 -- -- 83
2020-10-18 07:00:00 11.8 3 Sur 10 Sudeste 0 -- -- 81
2020-10-18 06:00:00 12.3 8 Sudeste 13 Sudeste 0 -- -- 82
2020-10-18 05:00:00 12.1 3 Sudeste 9 Sudeste 0 -- -- 81
2020-10-18 04:00:00 12.2 0 Calma 6 Este 0 -- -- 79
2020-10-18 03:00:00 12.4 0 Calma 7 Este 0 -- -- 82
2020-10-18 02:00:00 13.6 4 Este 11 Sudeste 0 -- -- 71
2020-10-18 01:00:00 13.6 0 Calma 4 Este 0 -- -- 70
2020-10-18 00:00:00 14.5 0 Calma 4 Este 0 -- -- 71
2020-10-17 23:00:00 15.2 0 Calma 4 Norte 0 -- -- 66
2020-10-17 22:00:00 15.9 0 Calma 9 Oeste 0 -- -- 57
2020-10-17 21:00:00 16.9 0 Calma 14 Sudoeste 0 -- -- 52
2020-10-17 20:00:00 19.2 3 Sudoeste 19 Sudoeste 0 -- -- 46
2020-10-17 19:00:00 22 6 Oeste 16 Sudoeste 0 -- -- 37
2020-10-17 18:00:00 23.3 5 Norte 15 Sudoeste 0 -- -- 29
2020-10-17 17:00:00 23.9 4 Sudeste 16 Sudoeste 0 -- -- 30
2020-10-17 16:00:00 23.3 4 Norte 11 Este 0 -- -- 30
2020-10-17 15:00:00 23 4 Sudeste 20 Sudoeste 0 -- -- 30
2020-10-17 14:00:00 22.3 8 Sudeste 24 Sudoeste 0 -- -- 33
2020-10-17 13:00:00 21.1 5 Norte 14 Nordeste 0 -- -- 32
2020-10-17 12:00:00 18 4 Sudeste 6 Este 0 -- -- 47
2020-10-17 11:00:00 15.2 3 Sudeste 6 Este 0 -- -- 53
2020-10-17 10:00:00 13.2 4 Sudeste 7 Sudeste 0 -- -- 64
2020-10-17 09:00:00 10.2 0 Calma 6 Este 0 -- -- 77
2020-10-17 08:00:00 10 0 Calma 5 Sudeste 0 -- -- 77
2020-10-17 07:00:00 10.3 0 Calma 5 Sudeste 0 -- -- 77
2020-10-17 06:00:00 10.6 0 Calma 6 Sudeste 0 -- -- 79
2020-10-17 05:00:00 10.7 0 Calma 4 Este 0 -- -- 80
2020-10-17 04:00:00 11.5 3 Sudeste 8 Este 0 -- -- 79
2020-10-17 03:00:00 12.1 0 Calma 4 Sudeste 0 -- -- 80
2020-10-17 02:00:00 12.6 0 Calma 5 Nordeste 0 -- -- 78
2020-10-17 01:00:00 13.4 0 Calma 5 Este 0 -- -- 78
2020-10-17 00:00:00 14.2 4 Sudoeste 6 Sudoeste 0 -- -- 79
2020-10-16 23:00:00 14.3 0 Calma 5 Sudoeste 0 -- -- 72
2020-10-16 22:00:00 16 3 Oeste 12 Oeste 0 -- -- 57
2020-10-16 21:00:00 17.3 8 Oeste 18 Sudoeste 0 -- -- 47
2020-10-16 20:00:00 18.7 5 Oeste 15 Sudoeste 0 -- -- 35
2020-10-16 19:00:00 20.8 8 Sudoeste 17 Sudoeste 0 -- -- 39
2020-10-16 18:00:00 22.3 5 Norte 20 Noroeste 0 -- -- 41
2020-10-16 17:00:00 22.9 8 Noroeste 17 Norte 0 -- -- 40
2020-10-16 16:00:00 22.3 3 Nordeste 14 Este 0 -- -- 41
2020-10-16 15:00:00 24.2 6 Sudeste 22 Sudoeste 0 -- -- 30
2020-10-16 14:00:00 23 9 Sur 19 Sur 0 -- -- 34
2020-10-16 13:00:00 21.9 8 Sur 17 Sudeste 0 -- -- 43
2020-10-16 12:00:00 18.7 4 Este 7 Sudeste 0 -- -- 54
2020-10-16 11:00:00 15.5 3 Sudeste 8 Sudeste 0 -- -- 52
2020-10-16 10:00:00 12.7 3 Este 8 Nordeste 0 -- -- 60
2020-10-16 09:00:00 10.1 3 Sudeste 6 Este 0 -- -- 76
2020-10-16 08:00:00 10.1 0 Calma 4 Sudeste 0 -- -- 75
2020-10-16 07:00:00 10.6 0 Calma 4 Nordeste 0 -- -- 72
2020-10-16 06:00:00 10.8 0 Calma 5 Sudeste 0 -- -- 67
2020-10-16 05:00:00 10.8 0 Calma 5 Nordeste 0 -- -- 65
2020-10-16 04:00:00 10.9 2 Este 4 Este 0 -- -- 61
2020-10-16 03:00:00 11.7 0 Calma 4 Este 0 -- -- 56
2020-10-16 02:00:00 12 0 Calma 4 Nordeste 0 -- -- 55
2020-10-16 01:00:00 12.9 0 Calma 5 Nordeste 0 -- -- 52
2020-10-16 00:00:00 13.9 0 Calma 4 Nordeste 0 -- -- 54
2020-10-15 23:00:00 14.6 0 Calma 8 Oeste 0 -- -- 46
2020-10-15 22:00:00 14.9 3 Oeste 8 Sudoeste 0 -- -- 49
2020-10-15 21:00:00 16.1 2 Sudoeste 10 Oeste 0 -- -- 43
2020-10-15 20:00:00 18.2 5 Sur 18 Sudoeste 0 -- -- 38
2020-10-15 19:00:00 20.3 6 Sudoeste 23 Sudoeste 0 -- -- 29
2020-10-15 18:00:00 22.5 8 Sudoeste 22 Sudoeste 0 -- -- 28
2020-10-15 17:00:00 22.7 6 Norte 17 Norte 0 -- -- 23
2020-10-15 16:00:00 23.2 6 Norte 16 Sur 0 -- -- 21
2020-10-15 15:00:00 22.3 8 Norte 20 Noroeste 0 -- -- 23
2020-10-15 14:00:00 21.9 6 Nordeste 18 Sudoeste 0 -- -- 27
2020-10-15 13:00:00 20.7 6 Sudoeste 16 Oeste 0 -- -- 32
2020-10-15 12:00:00 18.4 6 Norte 14 Noroeste 0 -- -- 57
2020-10-15 11:00:00 15.4 3 Este 6 Noroeste 0 -- -- 73
2020-10-15 10:00:00 12.5 3 Este 8 Sudeste 0 -- -- 84
2020-10-15 09:00:00 10.1 0 Calma 5 Este 0 -- -- 92
2020-10-15 08:00:00 10 0 Calma 8 Sudeste 0 -- -- 91
2020-10-15 07:00:00 10.5 0 Calma 6 Este 0 -- -- 92
2020-10-15 06:00:00 11.2 0 Calma 4 Sur 0 -- -- 92
2020-10-15 05:00:00 11.7 0 Calma 4 Sur 0 -- -- 90
2020-10-15 04:00:00 12.2 0 Calma 4 Sudeste 0 -- -- 83
2020-10-15 03:00:00 12.9 0 Calma 6 Sudeste 0 -- -- 79
2020-10-15 02:00:00 13.7 0 Calma 3 Nordeste 0 -- -- 71
2020-10-15 01:00:00 14.5 0 Calma 11 Oeste 0 -- -- 70
2020-10-15 00:00:00 15.6 6 Oeste 15 Sudoeste 0 -- -- 68
2020-10-14 23:00:00 15.6 6 Sudoeste 17 Sudoeste 0 -- -- 66
2020-10-14 22:00:00 15.7 5 Sudoeste 14 Sudoeste 0 -- -- 61
2020-10-14 21:00:00 16.2 5 Sudoeste 13 Sudoeste 0 -- -- 57
2020-10-14 20:00:00 17.8 5 Sudoeste 27 Sudoeste 0 -- -- 51
2020-10-14 19:00:00 20 12 Sudoeste 23 Sudoeste 0 -- -- 44
2020-10-14 18:00:00 21.3 10 Sudoeste 30 Sudoeste 0 -- -- 35
2020-10-14 17:00:00 21.9 5 Nordeste 27 Sudoeste 0 -- -- 35
2020-10-14 16:00:00 22.1 9 Sudoeste 27 Oeste 0 -- -- 37
2020-10-14 15:00:00 21.2 6 Oeste 18 Sudoeste 0 -- -- 37
2020-10-14 14:00:00 19.9 6 Sudoeste 17 Sudoeste 0 -- -- 41
2020-10-14 13:00:00 18.1 5 Nordeste 16 Sudoeste 0 -- -- 47
2020-10-14 12:00:00 16.6 6 Sudoeste 17 Oeste 0 -- -- 54
2020-10-14 11:00:00 14.8 7 Sudoeste 16 Sudoeste 0 -- -- 60
2020-10-14 10:00:00 13.5 4 Sur 13 Sudoeste 0 -- -- 67
2020-10-14 09:00:00 11.4 4 Sudoeste 8 Sudoeste 0 -- -- 81
2020-10-14 08:00:00 12.8 4 Sur 14 Sudoeste 0 -- -- 80
2020-10-14 07:00:00 14.1 6 Sudoeste 16 Sudoeste 0 -- -- 86
2020-10-14 06:00:00 15.3 5 Oeste 12 Oeste 0 -- -- 82
2020-10-14 05:00:00 15 2 Sudoeste 6 Sudoeste 0 -- -- 82
2020-10-14 04:00:00 14.6 0 Calma 2 Este 0 -- -- 62
2020-10-14 03:00:00 14.6 0 Calma 4 Sudoeste 0 -- -- 59
2020-10-14 02:00:00 15.3 0 Calma 4 Este 0 -- -- 52
2020-10-14 01:00:00 16 0 Calma 5 Norte 0 -- -- 53
2020-10-14 00:00:00 16.4 3 Norte 5 Nordeste 0 -- -- 51
2020-10-13 23:00:00 17.3 0 Calma 14 Sudoeste 0 -- -- 40
2020-10-13 22:00:00 19.5 4 Noroeste 22 Noroeste 0 -- -- 32
2020-10-13 21:00:00 21.2 8 Noroeste 19 Noroeste 0 -- -- 26
2020-10-13 20:00:00 23.5 9 Noroeste 18 Oeste 0 -- -- 23
2020-10-13 19:00:00 26.3 5 Noroeste 10 Noroeste 0 -- -- 15
2020-10-13 18:00:00 27.8 8 Noroeste 17 Noroeste 0 -- -- 12
2020-10-13 17:00:00 27.9 5 Norte 12 Noroeste 0 -- -- 12
2020-10-13 16:00:00 26.5 5 Sudeste 12 Sudeste 0 -- -- 25
2020-10-13 15:00:00 25.8 9 Sudeste 13 Sudeste 0 -- -- 26
2020-10-13 14:00:00 23.9 5 Sudeste 9 Sudeste 0 -- -- 33
2020-10-13 13:00:00 22.3 4 Sudeste 9 Nordeste 0 -- -- 38
2020-10-13 12:00:00 19.4 3 Sudeste 6 Sudeste 0 -- -- 62
2020-10-13 11:00:00 17 3 Sudeste 7 Sudeste 0 -- -- 74
2020-10-13 10:00:00 14.3 4 Sudeste 6 Sudeste 0 -- -- 88
2020-10-13 09:00:00 12.2 0 Calma 4 Este 0 -- -- 94
2020-10-13 08:00:00 11.8 0 Calma 5 Sudeste 0 -- -- 93
2020-10-13 07:00:00 12.2 0 Calma 4 Sudeste 0 -- -- 92
2020-10-13 06:00:00 12.7 0 Calma 4 Este 0 -- -- 92
2020-10-13 05:00:00 13.2 2 Sudoeste 4 Nordeste 0 -- -- 90
2020-10-13 04:00:00 -- -- -- -- -- -- -- -- --
2020-10-13 03:00:00 14.2 2 Norte 5 Norte 0 -- -- 85
2020-10-13 02:00:00 14.9 0 Calma 5 Nordeste 0 -- -- 79
2020-10-13 01:00:00 -- -- -- -- -- -- -- -- --
2020-10-13 00:00:00 16.5 0 Calma 8 Nordeste 0 -- -- 70
2020-10-12 23:00:00 17.5 2 Este 7 Nordeste 0 -- -- 59
2020-10-12 22:00:00 18.5 0 Calma 13 Sudeste 0 -- -- 42
2020-10-12 21:00:00 21.8 4 Nordeste 19 Norte 0 -- -- 20
2020-10-12 20:00:00 23.2 8 Norte 21 Norte 0 -- -- 13
2020-10-12 19:00:00 25 8 Norte 22 Nordeste 0 -- -- 12
2020-10-12 18:00:00 27.1 10 Noroeste 23 Noroeste 0 -- -- 14
2020-10-12 17:00:00 27.5 5 Norte 14 Nordeste 0 -- -- 18
2020-10-12 16:00:00 26.7 4 Norte 14 Noroeste 0 -- -- 20
2020-10-12 15:00:00 25.9 8 Norte 15 Oeste 0 -- -- 24
2020-10-12 14:00:00 24.5 5 Norte 12 Norte 0 -- -- 36
2020-10-12 13:00:00 23.1 5 Norte 12 Norte 0 -- -- 47
2020-10-12 12:00:00 21.4 3 Norte 8 Sudeste 0 -- -- 57
2020-10-12 11:00:00 18.7 3 Sudeste 6 Sudeste 0 -- -- 68
2020-10-12 10:00:00 15.7 2 Sudeste 10 Sudeste 0 -- -- 78
2020-10-12 09:00:00 13.3 3 Sur 5 Sur 0 -- -- 78
2020-10-12 08:00:00 13.2 0 Calma 4 Nordeste 0 -- -- 81
2020-10-12 07:00:00 13.7 0 Calma 3 Sudoeste 0 -- -- 94
2020-10-12 06:00:00 14.1 0 Calma 4 Norte 0 -- -- 91
2020-10-12 05:00:00 15 0 Calma 4 Sudeste 0 -- -- 91
2020-10-12 04:00:00 -- -- -- -- -- -- -- -- --
2020-10-12 03:00:00 16.6 0 Calma 4 Este 0 -- -- 86
2020-10-12 02:00:00 16.9 0 Calma 4 Nordeste 0 -- -- 85
2020-10-12 01:00:00 17.5 0 Calma 6 Noroeste 0 -- -- 78
2020-10-12 00:00:00 19 4 Noroeste 21 Oeste 0 -- -- 71
2020-10-11 23:00:00 19.8 9 Oeste 21 Oeste 0 -- -- 66
2020-10-11 22:00:00 21.3 10 Noroeste 17 Oeste 0 -- -- 58
2020-10-11 21:00:00 -- -- -- -- -- -- -- -- --
2020-10-11 20:00:00 -- -- -- -- -- -- -- -- --
2020-10-11 19:00:00 27.2 4 Noroeste 15 Norte 0 -- -- 34
2020-10-11 18:00:00 28.5 7 Norte 16 Norte 0 -- -- 36
2020-10-11 17:00:00 28.9 7 Noroeste 18 Noroeste 0 -- -- 35
2020-10-11 16:00:00 28.4 7 Noroeste 15 Norte 0 -- -- 36
2020-10-11 15:00:00 27.4 4 Norte 13 Norte 0 -- -- 39
2020-10-11 14:00:00 26 5 Norte 12 Noroeste 0 -- -- 51
2020-10-11 13:00:00 24.8 5 Este 12 Norte 0 -- -- 58
2020-10-11 12:00:00 23.1 4 Sudeste 8 Sur 0 -- -- 64
2020-10-11 11:00:00 20.7 4 Sudeste 8 Este 0 -- -- 74
2020-10-11 10:00:00 18.2 4 Este 6 Este 0 -- -- 82
2020-10-11 09:00:00 15.8 2 Este 5 Sudeste 0 -- -- 92
2020-10-11 08:00:00 15.7 0 Calma 4 Nordeste 0 -- -- 92
2020-10-11 07:00:00 15.8 0 Calma 5 Sudeste 0 -- -- 91
2020-10-11 06:00:00 15.9 0 Calma 3 Este 0 -- -- 91
2020-10-11 05:00:00 16.2 0 Calma 4 Nordeste 0 -- -- 89
2020-10-11 04:00:00 16.6 0 Calma 3 Nordeste 0 -- -- 87
2020-10-11 03:00:00 17.1 0 Calma 3 Sudeste 0 -- -- 86
2020-10-11 02:00:00 17.6 0 Calma 4 Este 0 -- -- 83
2020-10-11 01:00:00 18 0 Calma 3 Nordeste 0 -- -- 82
2020-10-11 00:00:00 18.6 0 Calma 7 Noroeste 0 -- -- 75
2020-10-10 23:00:00 20 3 Noroeste 10 Oeste 0 -- -- 68
2020-10-10 22:00:00 21.1 6 Oeste 13 Sudoeste 0 -- -- 60
2020-10-10 21:00:00 22.2 7 Oeste 15 Oeste 0 -- -- 58
2020-10-10 20:00:00 24.5 7 Sudoeste 14 Norte 0 -- -- 50
2020-10-10 19:00:00 27.5 5 Sudoeste 19 Oeste 0 -- -- 39
2020-10-10 18:00:00 29 8 Sudoeste 21 Oeste 0 -- -- 34
2020-10-10 17:00:00 29.4 6 Noroeste 15 Noroeste 0 -- -- 33
2020-10-10 16:00:00 29.6 4 Este 8 Este 0 -- -- 30
2020-10-10 15:00:00 28.7 4 Este 8 Nordeste 0 -- -- 33
2020-10-10 14:00:00 27.8 5 Este 9 Norte 0 -- -- 36
2020-10-10 13:00:00 26.1 4 Sudeste 8 Sudeste 0 -- -- 38
2020-10-10 12:00:00 24.2 3 Norte 8 Norte 0 -- -- 51
2020-10-10 11:00:00 22.1 0 Calma 10 Norte 0 -- -- 57
2020-10-10 10:00:00 19.4 0 Calma 6 Este 0 -- -- 68
2020-10-10 09:00:00 17.2 2 Sudeste 6 Este 0 -- -- 79
2020-10-10 08:00:00 16.6 0 Calma 6 Este 0 -- -- 84
2020-10-10 07:00:00 16.7 0 Calma 7 Nordeste 0 -- -- 84
2020-10-10 06:00:00 16.6 0 Calma 3 Este 0 -- -- 89
2020-10-10 05:00:00 17 0 Calma 7 Norte 0 -- -- 86
2020-10-10 04:00:00 17.4 0 Calma 6 Este 0 -- -- 76
2020-10-10 03:00:00 18.1 3 Sudoeste 7 Sudoeste 0 -- -- 75
2020-10-10 02:00:00 18.6 0 Calma 5 Noroeste 0 -- -- 70
2020-10-10 01:00:00 19.4 3 Noroeste 10 Noroeste 0 -- -- 67
2020-10-10 00:00:00 19.3 3 Norte 6 Norte 0 -- -- 68
2020-10-09 23:00:00 20 3 Noroeste 5 Norte 0 -- -- 63
2020-10-09 22:00:00 21.6 4 Sudoeste 23 Oeste 0 -- -- 57
2020-10-09 21:00:00 22.7 13 Oeste 19 Oeste 0 -- -- 53
2020-10-09 20:00:00 25.4 5 Noroeste 8 Norte 0 -- -- 44
2020-10-09 19:00:00 27.8 0 Calma 7 Sudeste 0 -- -- 39
2020-10-09 18:00:00 28.5 4 Sudeste 6 Sudeste 0 -- -- 35
2020-10-09 17:00:00 28.7 4 Sudeste 9 Norte 0 -- -- 35
2020-10-09 16:00:00 28.7 4 Este 11 Este 0 -- -- 34
2020-10-09 15:00:00 27.5 8 Sudeste 12 Sudeste 0 -- -- 42
2020-10-09 14:00:00 26.9 4 Este 8 Este 0 -- -- 42
2020-10-09 13:00:00 25.9 3 Este 11 Nordeste 0 -- -- 42
2020-10-09 12:00:00 24.6 5 Este 16 Sudeste 0 -- -- 46
2020-10-09 11:00:00 23.3 3 Sudeste 10 Este 0 -- -- 47
2020-10-09 10:00:00 20.6 4 Nordeste 12 Nordeste 0 -- -- 58
2020-10-09 09:00:00 19.7 3 Nordeste 12 Nordeste 0 -- -- 61
2020-10-09 08:00:00 19.8 3 Noroeste 15 Este 0 -- -- 55
2020-10-09 07:00:00 20.4 5 Este 17 Este 0 -- -- 51
2020-10-09 06:00:00 20.4 3 Nordeste 15 Este 0 -- -- 49
2020-10-09 05:00:00 21.2 5 Este 15 Este 0 -- -- 48
2020-10-09 04:00:00 20.9 5 Este 14 Nordeste 0 -- -- 47
2020-10-09 03:00:00 21.7 6 Este 17 Nordeste 0 -- -- 43
2020-10-09 02:00:00 21.5 5 Este 20 Nordeste 0 -- -- 45
2020-10-09 01:00:00 22.2 9 Este 25 Este 0 -- -- 45
2020-10-09 00:00:00 22.2 5 Nordeste 18 Este 0 -- -- 41
2020-10-08 23:00:00 22.4 5 Nordeste 19 Nordeste 0 -- -- 40
2020-10-08 22:00:00 23.2 6 Este 19 Este 0 -- -- 38
2020-10-08 21:00:00 23.6 4 Este 19 Nordeste 0 -- -- 38
2020-10-08 20:00:00 24.8 8 Este 21 Este 0 -- -- 37
2020-10-08 19:00:00 26.1 6 Este 17 Este 0 -- -- 38
2020-10-08 18:00:00 26.9 5 Este 26 Sudeste 0 -- -- 38
2020-10-08 17:00:00 27.7 13 Sudeste 30 Sudeste 0 -- -- 34
2020-10-08 16:00:00 27.9 10 Este 26 Este 0 -- -- 32
2020-10-08 15:00:00 28.2 9 Este 20 Sudeste 0 -- -- 31
2020-10-08 14:00:00 27.8 7 Este 20 Sudeste 0 -- -- 35
2020-10-08 13:00:00 27.1 8 Este 22 Nordeste 0 -- -- 31
2020-10-08 12:00:00 26.6 9 Este 25 Este 0 -- -- 34
2020-10-08 11:00:00 25.7 9 Este 18 Sudeste 0 -- -- 33
2020-10-08 10:00:00 20.9 0 Calma 9 Sudeste 0 -- -- 42
2020-10-08 09:00:00 20.4 3 Este 11 Este 0 -- -- 45
2020-10-08 08:00:00 20.7 3 Este 12 Este 0 -- -- 44
2020-10-08 07:00:00 20.2 4 Este 12 Nordeste 0 -- -- 42
2020-10-08 06:00:00 20.1 2 Nordeste 10 Este 0 -- -- 43
2020-10-08 05:00:00 20.3 3 Este 9 Nordeste 0 -- -- 45
2020-10-08 04:00:00 20.8 0 Calma 7 Norte 0 -- -- 42
2020-10-08 03:00:00 21.8 3 Noroeste 9 Oeste 0 -- -- 39
2020-10-08 02:00:00 21.3 0 Calma 7 Nordeste 0 -- -- 41
2020-10-08 01:00:00 21.5 0 Calma 7 Nordeste 0 -- -- 40
2020-10-08 00:00:00 21.8 0 Calma 6 Nordeste 0 -- -- 39
2020-10-07 23:00:00 22.6 2 Norte 9 Nordeste 0 -- -- 35
2020-10-07 22:00:00 23.5 0 Calma 5 Sudeste 0 -- -- 34
2020-10-07 21:00:00 25 2 Oeste 6 Norte 0 -- -- 33
2020-10-07 20:00:00 27.5 3 Norte 10 Sudeste 0 -- -- 26
2020-10-07 19:00:00 31.1 2 Nordeste 14 Oeste 0 -- -- 22
2020-10-07 18:00:00 32.8 3 Norte 18 Sudoeste 0 -- -- 18
2020-10-07 17:00:00 32.6 6 Norte 15 Noroeste 0 -- -- 19
2020-10-07 16:00:00 32 5 Norte 16 Noroeste 0 -- -- 20
2020-10-07 15:00:00 30.6 6 Norte 15 Norte 0 -- -- 23
2020-10-07 14:00:00 29.1 7 Noroeste 17 Norte 0 -- -- 27
2020-10-07 13:00:00 26.8 5 Norte 12 Norte 0 -- -- 34
2020-10-07 12:00:00 23 3 Este 6 Sudeste 0 -- -- 41
2020-10-07 11:00:00 19.5 3 Sur 6 Sudeste 0 -- -- 53
2020-10-07 10:00:00 16.8 3 Sudeste 7 Sudeste 0 -- -- 68
2020-10-07 09:00:00 14.7 0 Calma 2 Nordeste 0 -- -- 81
2020-10-07 08:00:00 14.2 0 Calma 2 Nordeste 0 -- -- 77
2020-10-07 07:00:00 14.8 0 Calma 6 Sur 0 -- -- 75
2020-10-07 06:00:00 15.2 0 Calma 4 Sudoeste 0 -- -- 73
2020-10-07 05:00:00 15.5 3 Sudoeste 5 Sudoeste 0 -- -- 64
2020-10-07 04:00:00 16 0 Calma 3 Sur 0 -- -- 63
2020-10-07 03:00:00 16.8 0 Calma 4 Este 0 -- -- 62
2020-10-07 02:00:00 17.4 0 Calma 4 Este 0 -- -- 60
2020-10-07 01:00:00 18.3 0 Calma 7 Nordeste 0 -- -- 62
2020-10-07 00:00:00 19.1 0 Calma 8 Oeste 0 -- -- 57
2020-10-06 23:00:00 20.5 5 Noroeste 20 Oeste 0 -- -- 50
2020-10-06 22:00:00 21.4 15 Noroeste 22 Oeste 0 -- -- 37
2020-10-06 21:00:00 23.1 2 Nordeste 15 Sudoeste 0 -- -- 33
2020-10-06 20:00:00 25.7 6 Oeste 16 Norte 0 -- -- 28
2020-10-06 19:00:00 28 6 Noroeste 15 Norte 0 -- -- 22
2020-10-06 18:00:00 29.5 6 Noroeste 17 Noroeste 0 -- -- 19
2020-10-06 17:00:00 29.2 5 Sudeste 11 Este 0 -- -- 20
2020-10-06 16:00:00 28.6 6 Nordeste 17 Norte 0 -- -- 20
2020-10-06 15:00:00 27.9 5 Nordeste 12 Norte 0 -- -- 20
2020-10-06 14:00:00 26.3 7 Este 15 Norte 0 -- -- 28
2020-10-06 13:00:00 24.2 6 Norte 14 Norte 0 -- -- 30
2020-10-06 12:00:00 20.5 3 Sudeste 7 Sudeste 0 -- -- 47
2020-10-06 11:00:00 17.9 3 Sudeste 6 Sur 0 -- -- 56
2020-10-06 10:00:00 15.3 3 Sudeste 7 Sudeste 0 -- -- 70
2020-10-06 09:00:00 12.9 0 Calma 5 Sudeste 0 -- -- 78
2020-10-06 08:00:00 12.6 0 Calma 9 Sur 0 -- -- 76
2020-10-06 07:00:00 12.7 0 Calma 5 Sudeste 0 -- -- 80
2020-10-06 06:00:00 13.5 2 Sur 5 Sur 0 -- -- 75
2020-10-06 05:00:00 14.3 0 Calma 8 Norte 0 -- -- 65
2020-10-06 04:00:00 14.6 2 Nordeste 12 Sudeste 0 -- -- 70
2020-10-06 03:00:00 14.7 0 Calma 4 Norte 0 -- -- 76
2020-10-06 02:00:00 15.2 0 Calma 9 Sudeste 0 -- -- 77
2020-10-06 01:00:00 15.8 0 Calma 5 Noroeste 0 -- -- 74
2020-10-06 00:00:00 16.2 3 Oeste 8 Sudoeste 0 -- -- 70
2020-10-05 23:00:00 16.7 2 Sudoeste 14 Noroeste 0 -- -- 62
2020-10-05 22:00:00 18.9 9 Noroeste 19 Oeste 0 -- -- 50
2020-10-05 21:00:00 20.2 9 Noroeste 16 Noroeste 0 -- -- 44
2020-10-05 20:00:00 21.8 3 Norte 18 Norte 0 -- -- 33
2020-10-05 19:00:00 23.3 6 Noroeste 22 Noroeste 0 -- -- 29
2020-10-05 18:00:00 24 10 Norte 23 Norte 0 -- -- 28
2020-10-05 17:00:00 24.6 8 Norte 25 Norte 0 -- -- 28
2020-10-05 16:00:00 23.8 9 Noroeste 23 Noroeste 0 -- -- 30
2020-10-05 15:00:00 23 8 Norte 26 Noroeste 0 -- -- 31
2020-10-05 14:00:00 22.2 11 Norte 30 Norte 0 -- -- 34
2020-10-05 13:00:00 21.2 10 Norte 30 Norte 0 -- -- 37
2020-10-05 12:00:00 19.2 8 Norte 23 Nordeste 0 -- -- 46
2020-10-05 11:00:00 17.4 8 Norte 19 Norte 0 -- -- 52
2020-10-05 10:00:00 15 6 Norte 19 Norte 0 -- -- 62
2020-10-05 09:00:00 13.2 5 Norte 17 Norte 0 -- -- 68
2020-10-05 08:00:00 13 4 Norte 15 Norte 0 -- -- 71
2020-10-05 07:00:00 13.7 0 Calma 15 Norte 0 -- -- 72
2020-10-05 06:00:00 14.2 4 Noroeste 13 Noroeste 0 -- -- 70
2020-10-05 05:00:00 14.6 7 Noroeste 17 Noroeste 0 -- -- 74
2020-10-05 04:00:00 15.2 5 Noroeste 14 Noroeste 0 -- -- 83
2020-10-05 03:00:00 15.1 3 Noroeste 8 Oeste 0 -- -- 88
2020-10-05 02:00:00 16.2 3 Oeste 8 Oeste 0 -- -- 88
2020-10-05 01:00:00 16.6 3 Oeste 6 Oeste 0 -- -- 88
2020-10-05 00:00:00 16.3 3 Sudoeste 5 Sudoeste 0 -- -- 88
2020-10-04 23:00:00 17 2 Sur 9 Oeste 0 -- -- 81
2020-10-04 22:00:00 17.6 3 Sudoeste 9 Oeste 0 -- -- 76
2020-10-04 21:00:00 18.4 2 Sur 12 Sur 0 -- -- 69
2020-10-04 20:00:00 19.3 8 Sur 23 Sur 0 -- -- 61
2020-10-04 19:00:00 21.1 8 Sur 22 Sudoeste 0 -- -- 51
2020-10-04 18:00:00 22.1 5 Nordeste 21 Norte 0 -- -- 43
2020-10-04 17:00:00 22.4 9 Norte 30 Norte 0 -- -- 39
2020-10-04 16:00:00 23.8 9 Norte 25 Noroeste 0 -- -- 32
2020-10-04 15:00:00 23.3 7 Oeste 22 Sudoeste 0 -- -- 31
2020-10-04 14:00:00 22.2 6 Norte 22 Norte 0 -- -- 34
2020-10-04 13:00:00 20.8 8 Norte 22 Norte 0 -- -- 40
2020-10-04 12:00:00 18.7 4 Este 8 Sudeste 0 -- -- 66
2020-10-04 11:00:00 16.4 5 Sudeste 9 Norte 0 -- -- 77
2020-10-04 10:00:00 13.6 3 Este 6 Este 0 -- -- 89
2020-10-04 09:00:00 11.6 0 Calma 4 Nordeste 0 -- -- 94
2020-10-04 08:00:00 11.1 0 Calma 7 Sudeste 0 -- -- 93
2020-10-04 07:00:00 11.4 0 Calma 6 Sudeste 0 -- -- 93
2020-10-04 06:00:00 11.6 0 Calma 5 Sudeste 0 -- -- 91
2020-10-04 05:00:00 12.4 0 Calma 3 Este 0 -- -- 90
2020-10-04 04:00:00 12.6 0 Calma 4 Sudoeste 0 -- -- 88
2020-10-04 03:00:00 12.9 0 Calma 6 Sudeste 0 -- -- 83
2020-10-04 02:00:00 13.8 0 Calma 5 Este 0 -- -- 82
2020-10-04 01:00:00 14.2 0 Calma 5 Norte 0 -- -- 78
2020-10-04 00:00:00 14.1 0 Calma 4 Este 0 -- -- 70
2020-10-03 23:00:00 15.1 0 Calma 9 Noroeste 0 -- -- 62
2020-10-03 22:00:00 16.4 3 Este 13 Sudoeste 0 -- -- 57
2020-10-03 21:00:00 17.1 5 Sudoeste 18 Sudoeste 0 -- -- 51
2020-10-03 20:00:00 19 8 Sudoeste 18 Sudoeste 0 -- -- 42
2020-10-03 19:00:00 21.2 4 Noroeste 17 Noroeste 0 -- -- 32
2020-10-03 18:00:00 22.1 9 Noroeste 22 Noroeste 0 -- -- 30
2020-10-03 17:00:00 22.1 7 Norte 25 Norte 0 -- -- 29
2020-10-03 16:00:00 22.5 7 Norte 15 Nordeste 0 -- -- 23
2020-10-03 15:00:00 21.1 6 Norte 16 Norte 0 -- -- 30
2020-10-03 14:00:00 19.5 4 Noroeste 16 Norte 0 -- -- 38
2020-10-03 13:00:00 18.5 4 Nordeste 14 Norte 0 -- -- 55
2020-10-03 12:00:00 16.5 7 Norte 12 Noroeste 0 -- -- 64
2020-10-03 11:00:00 14.6 5 Noroeste 11 Oeste 0 -- -- 70
2020-10-03 10:00:00 12.7 5 Norte 8 Noroeste 0 -- -- 75
2020-10-03 09:00:00 10.1 2 Sudoeste 5 Noroeste 0 -- -- 84
2020-10-03 08:00:00 9.9 2 Oeste 10 Este 0 -- -- 84
2020-10-03 07:00:00 10 3 Sudoeste 8 Sudoeste 0 -- -- 82
2020-10-03 06:00:00 11.1 0 Calma 13 Norte 0 -- -- 77
2020-10-03 05:00:00 11.3 4 Sur 9 Sudeste 0 -- -- 77
2020-10-03 04:00:00 11.4 4 Sudoeste 10 Sudoeste 0 -- -- 74
2020-10-03 03:00:00 13.1 4 Oeste 23 Noroeste 0 -- -- 67
2020-10-03 02:00:00 12.9 4 Sur 16 Noroeste 0 -- -- 70
2020-10-03 01:00:00 13.9 3 Sur 13 Sur 0 -- -- 70
2020-10-03 00:00:00 15.1 5 Noroeste 14 Noroeste 0 -- -- 67
2020-10-02 23:00:00 16 3 Sudoeste 21 Noroeste 0 -- -- 73
2020-10-02 22:00:00 18.2 3 Norte 24 Oeste 0 -- -- 66
2020-10-02 21:00:00 19.1 8 Norte 21 Norte 0 -- -- 71
2020-10-02 20:00:00 19.9 7 Sudeste 20 Sur 0 -- -- 74
2020-10-02 19:00:00 20 8 Sur 23 Sudeste 0.2 -- -- 84
2020-10-02 18:00:00 19.8 10 Sur 35 Sur 0.4 -- -- 89
2020-10-02 17:00:00 20.7 15 Sur 41 Sudoeste 0.2 -- -- 84
2020-10-02 16:00:00 20.4 19 Sur 39 Sur 1.4 -- -- 90
2020-10-02 15:00:00 19.8 12 Sudoeste 40 Oeste 0.4 -- -- 89
2020-10-02 14:00:00 21.7 18 Sudoeste 45 Sudoeste 0 -- -- 66
2020-10-02 13:00:00 21 14 Sudoeste 32 Sudoeste 0 -- -- 69
2020-10-02 12:00:00 18.5 11 Sudoeste 27 Sudoeste 0 -- -- 87
2020-10-02 11:00:00 19 9 Sudoeste 23 Sudoeste 0 -- -- 73
2020-10-02 10:00:00 17.7 6 Sudoeste 17 Sur 0 -- -- 72
2020-10-02 09:00:00 16.6 2 Sudoeste 11 Sur 0 -- -- 77
2020-10-02 08:00:00 16.1 5 Sur 11 Sur 0 -- -- 80
2020-10-02 07:00:00 15.6 0 Calma 7 Sur 0 -- -- 82
2020-10-02 06:00:00 15.7 3 Sur 10 Sur 0 -- -- 82
2020-10-02 05:00:00 15.6 3 Sudoeste 8 Sur 0 -- -- 82
2020-10-02 04:00:00 16.8 2 Sudoeste 9 Sur 0 -- -- 76
2020-10-02 03:00:00 17.1 3 Sudoeste 8 Sur 0 -- -- 76
2020-10-02 02:00:00 18.2 0 Calma 8 Sudoeste 0 -- -- 79
2020-10-02 01:00:00 18.7 4 Sudoeste 9 Sudoeste 0 -- -- 85
2020-10-02 00:00:00 18.8 3 Sudoeste 6 Sudoeste 0 -- -- 87
2020-10-01 23:00:00 18.8 2 Sudoeste 9 Sur 0 -- -- 85
2020-10-01 22:00:00 19.4 3 Sudoeste 9 Sudoeste 0 -- -- 79
2020-10-01 21:00:00 20.2 5 Sur 16 Sudoeste 0 -- -- 71
2020-10-01 20:00:00 21 7 Sudoeste 25 Sudoeste 0 -- -- 64
2020-10-01 19:00:00 23.3 10 Sudoeste 30 Oeste 0 -- -- 53
2020-10-01 18:00:00 25.8 12 Sudoeste 27 Sudoeste 0 -- -- 44
2020-10-01 17:00:00 27 9 Sudoeste 23 Oeste 0 -- -- 33
2020-10-01 16:00:00 26.5 6 Sudoeste 24 Sudoeste 0 -- -- 29
2020-10-01 15:00:00 26.4 10 Sudoeste 24 Oeste 0 -- -- 29
2020-10-01 14:00:00 25.5 11 Sudoeste 26 Oeste 0 -- -- 34
2020-10-01 13:00:00 24.5 11 Sudoeste 23 Sudoeste 0 -- -- 42
2020-10-01 12:00:00 22.8 9 Sur 20 Sur 0 -- -- 62
2020-10-01 11:00:00 19.6 6 Sudoeste 17 Oeste 0 -- -- 75
2020-10-01 10:00:00 19.2 7 Oeste 14 Sudoeste 0 -- -- 84
2020-10-01 09:00:00 18.6 4 Sur 8 Sur 0 -- -- 92
2020-10-01 08:00:00 18.4 3 Sudoeste 7 Sudoeste 0 -- -- 91
2020-10-01 07:00:00 18.2 4 Sudoeste 8 Sudoeste 0 -- -- 93
2020-10-01 06:00:00 18.1 2 Sudoeste 9 Sur 0 -- -- 94
2020-10-01 05:00:00 18 6 Sur 15 Oeste 0 -- -- 95
2020-10-01 04:00:00 17.9 0 Calma 6 Sudoeste 0 -- -- 92
2020-10-01 03:00:00 18.2 0 Calma 4 Sudeste 0 -- -- 90
2020-10-01 02:00:00 18.4 0 Calma 3 Este 0 -- -- 90
2020-10-01 01:00:00 19.2 2 Sur 12 Oeste 0 -- -- 82
2020-10-01 00:00:00 20.1 6 Noroeste 13 Oeste 0 -- -- 75
2020-09-30 23:00:00 20.6 2 Oeste 10 Oeste 0 -- -- 73
2020-09-30 22:00:00 21.3 7 Oeste 21 Sudoeste 0 -- -- 69
2020-09-30 21:00:00 22.4 11 Sudoeste 18 Sudoeste 0 -- -- 63
2020-09-30 20:00:00 24 3 Oeste 15 Sudoeste 0 -- -- 55
2020-09-30 19:00:00 25.4 7 Sudoeste 22 Sudoeste 0 -- -- 52
2020-09-30 18:00:00 28.2 4 Noroeste 19 Oeste 0 -- -- 45
2020-09-30 17:00:00 27.9 11 Sudoeste 22 Sudoeste 0 -- -- 45
2020-09-30 16:00:00 29.5 9 Sudoeste 20 Sudoeste 0 -- -- 36
2020-09-30 15:00:00 29.5 5 Sur 17 Norte 0 -- -- 26
2020-09-30 14:00:00 28.3 7 Norte 15 Norte 0 -- -- 29
2020-09-30 13:00:00 26 6 Noroeste 12 Noroeste 0 -- -- 32
2020-09-30 12:00:00 23.7 5 Noroeste 15 Noroeste 0 -- -- 38
2020-09-30 11:00:00 22.2 8 Noroeste 14 Noroeste 0 -- -- 43
2020-09-30 10:00:00 20.9 3 Norte 12 Noroeste 0 -- -- 42
2020-09-30 09:00:00 18.5 0 Calma 6 Noroeste 0 -- -- 52
2020-09-30 08:00:00 18.1 0 Calma 5 Norte 0 -- -- 44
2020-09-30 07:00:00 17.8 2 Norte 5 Norte 0 -- -- 58
2020-09-30 06:00:00 17.9 3 Norte 5 Norte 0 -- -- 55
2020-09-30 05:00:00 18.2 0 Calma 4 Nordeste 0 -- -- 59
2020-09-30 04:00:00 19 3 Noroeste 9 Noroeste 0 -- -- 49
2020-09-30 03:00:00 19.5 4 Noroeste 8 Norte 0 -- -- 43
2020-09-30 02:00:00 19.4 0 Calma 5 Noroeste 0 -- -- 51
2020-09-30 01:00:00 19.8 0 Calma 6 Norte 0 -- -- 43
2020-09-30 00:00:00 20 0 Calma 5 Nordeste 0 -- -- 47